createdAt,value
2022-08-22T00:00:13.450Z,18.60
2022-08-22T00:02:45.363Z,19.30
2022-08-22T00:03:04.492Z,19.30
2022-08-22T00:03:07.476Z,18.70
2022-08-22T00:03:07.478Z,18.50
2022-08-22T00:05:51.150Z,18.50
2022-08-22T00:08:26.229Z,18.50
2022-08-22T00:11:02.649Z,18.50
2022-08-22T00:13:37.249Z,18.50
2022-08-22T00:16:12.389Z,18.50
2022-08-22T00:18:49.707Z,18.50
2022-08-22T00:21:22.910Z,18.40
2022-08-22T00:23:57.453Z,18.40
2022-08-22T00:26:42.182Z,18.40
2022-08-22T00:29:18.733Z,18.40
2022-08-22T00:31:51.927Z,18.40
2022-08-22T00:34:31.076Z,18.40
2022-08-22T00:37:04.168Z,18.40
2022-08-22T00:39:37.721Z,18.40
2022-08-22T00:42:31.516Z,18.40
2022-08-22T00:45:46.872Z,18.30
2022-08-22T00:48:28.752Z,18.30
2022-08-22T00:51:25.013Z,18.30
2022-08-22T00:53:57.169Z,18.30
2022-08-22T00:56:53.228Z,18.30
2022-08-22T00:59:50.200Z,18.30
2022-08-22T01:02:32.996Z,18.30
2022-08-22T01:05:31.093Z,18.20
2022-08-22T01:08:18.090Z,18.20
2022-08-22T01:11:03.715Z,18.20
2022-08-22T01:13:53.610Z,18.20
2022-08-22T01:16:47.822Z,18.10
2022-08-22T01:19:59.477Z,18.10
2022-08-22T01:23:23.117Z,18.10
2022-08-22T01:26:54.229Z,18.10
2022-08-22T01:30:00.262Z,18.10
2022-08-22T01:33:09.659Z,18.10
2022-08-22T01:36:15.845Z,18.10
2022-08-22T01:39:03.833Z,18.10
2022-08-22T01:41:48.621Z,18.10
2022-08-22T01:44:34.602Z,18.10
2022-08-22T01:47:07.085Z,18.10
2022-08-22T01:49:42.624Z,18.00
2022-08-22T01:52:17.869Z,18.10
2022-08-22T01:54:55.003Z,18.10
2022-08-22T01:57:24.961Z,18.10
2022-08-22T01:59:57.054Z,18.10
2022-08-22T02:02:57.349Z,18.10
2022-08-22T02:05:31.708Z,18.10
2022-08-22T02:08:06.681Z,18.10
2022-08-22T02:10:56.327Z,18.10
2022-08-22T02:13:37.197Z,18.00
2022-08-22T02:16:12.036Z,18.10
2022-08-22T02:18:53.813Z,18.00
2022-08-22T02:21:27.648Z,18.00
2022-08-22T02:24:03.256Z,18.00
2022-08-22T02:26:51.304Z,18.00
2022-08-22T02:29:24.633Z,18.10
2022-08-22T02:31:57.448Z,18.00
2022-08-22T02:34:34.887Z,18.00
2022-08-22T02:37:10.744Z,18.00
2022-08-22T02:39:47.398Z,18.00
2022-08-22T02:42:27.492Z,17.90
2022-08-22T02:45:05.012Z,18.00
2022-08-22T02:47:40.224Z,18.00
2022-08-22T02:50:18.752Z,17.90
2022-08-22T02:52:59.813Z,17.90
2022-08-22T02:55:43.537Z,17.90
2022-08-22T02:58:21.009Z,17.90
2022-08-22T03:00:52.060Z,17.90
2022-08-22T03:03:25.255Z,17.90
2022-08-22T03:06:01.630Z,17.90
2022-08-22T03:08:32.599Z,17.90
2022-08-22T03:11:12.366Z,18.00
2022-08-22T03:13:54.928Z,17.90
2022-08-22T03:16:29.651Z,17.90
2022-08-22T03:19:04.152Z,17.90
2022-08-22T03:21:38.048Z,17.90
2022-08-22T03:24:12.471Z,17.90
2022-08-22T03:26:49.335Z,17.90
2022-08-22T03:29:21.623Z,17.90
2022-08-22T03:32:13.540Z,17.90
2022-08-22T03:34:56.339Z,17.90
2022-08-22T03:37:32.947Z,17.90
2022-08-22T03:40:07.840Z,17.90
2022-08-22T03:43:11.639Z,17.90
2022-08-22T03:46:10.588Z,18.00
2022-08-22T03:49:23.448Z,18.00
2022-08-22T03:52:16.167Z,18.00
2022-08-22T03:55:17.673Z,18.00
2022-08-22T03:58:23.893Z,18.00
2022-08-22T04:01:35.775Z,18.00
2022-08-22T04:04:42.554Z,18.00
2022-08-22T04:07:43.825Z,18.00
2022-08-22T04:10:32.266Z,18.00
2022-08-22T04:13:25.029Z,18.00
2022-08-22T04:16:20.713Z,18.00
2022-08-22T04:19:16.432Z,18.00
2022-08-22T04:22:14.016Z,18.00
2022-08-22T04:24:52.472Z,18.10
2022-08-22T04:27:25.526Z,18.10
2022-08-22T04:29:59.747Z,18.10
2022-08-22T04:32:34.274Z,18.20
2022-08-22T04:35:10.054Z,18.20
2022-08-22T04:37:48.183Z,18.20
2022-08-22T04:40:23.079Z,18.20
2022-08-22T04:42:57.002Z,18.20
2022-08-22T04:45:30.463Z,18.20
2022-08-22T04:48:06.478Z,18.20
2022-08-22T04:50:43.303Z,18.30
2022-08-22T04:53:24.634Z,18.20
2022-08-22T04:56:07.098Z,18.20
2022-08-22T04:58:46.979Z,18.30
2022-08-22T05:01:19.026Z,18.20
2022-08-22T05:03:53.646Z,18.30
2022-08-22T05:06:28.665Z,18.30
2022-08-22T05:09:01.965Z,18.30
2022-08-22T05:11:32.473Z,18.30
2022-08-22T05:14:05.169Z,18.30
2022-08-22T05:16:38.166Z,18.30
2022-08-22T05:19:14.430Z,18.30
2022-08-22T05:21:47.986Z,18.30
2022-08-22T05:24:28.002Z,18.40
2022-08-22T05:27:00.895Z,18.40
2022-08-22T05:29:31.921Z,18.40
2022-08-22T05:32:04.581Z,18.40
2022-08-22T05:34:37.369Z,18.40
2022-08-22T05:37:13.083Z,18.30
2022-08-22T05:39:47.033Z,18.30
2022-08-22T05:42:19.797Z,18.40
2022-08-22T05:44:47.925Z,18.40
2022-08-22T05:47:23.552Z,18.40
2022-08-22T05:50:01.029Z,18.40
2022-08-22T05:52:43.552Z,18.50
2022-08-22T05:55:22.658Z,18.50
2022-08-22T05:58:00.589Z,18.60
2022-08-22T06:00:33.448Z,18.60
2022-08-22T06:03:14.431Z,18.70
2022-08-22T06:05:48.056Z,18.70
2022-08-22T06:08:23.392Z,18.70
2022-08-22T06:10:54.985Z,18.80
2022-08-22T06:13:32.528Z,18.80
2022-08-22T06:16:10.344Z,18.80
2022-08-22T06:18:41.998Z,18.90
2022-08-22T06:21:14.432Z,18.90
2022-08-22T06:23:47.428Z,18.90
2022-08-22T06:26:20.570Z,19.00
2022-08-22T06:28:55.293Z,19.00
2022-08-22T06:31:30.229Z,19.10
2022-08-22T06:34:05.899Z,19.00
2022-08-22T06:36:36.480Z,19.10
2022-08-22T06:39:13.028Z,19.10
2022-08-22T06:41:46.044Z,19.20
2022-08-22T06:44:17.288Z,19.20
2022-08-22T06:46:47.476Z,19.20
2022-08-22T06:49:16.728Z,19.30
2022-08-22T06:51:45.999Z,19.30
2022-08-22T06:54:20.057Z,19.30
2022-08-22T06:56:51.983Z,19.40
2022-08-22T06:59:24.294Z,19.40
2022-08-22T07:01:56.216Z,19.50
2022-08-22T07:04:27.195Z,19.50
2022-08-22T07:06:58.204Z,19.60
2022-08-22T07:09:30.182Z,19.60
2022-08-22T07:12:02.051Z,19.70
2022-08-22T07:14:33.122Z,19.80
2022-08-22T07:17:04.355Z,19.90
2022-08-22T07:19:35.539Z,20.00
2022-08-22T07:22:13.114Z,20.10
2022-08-22T07:24:48.253Z,20.20
2022-08-22T07:27:33.304Z,20.30
2022-08-22T07:30:06.897Z,20.40
2022-08-22T07:32:48.463Z,20.40
2022-08-22T07:35:20.911Z,20.50
2022-08-22T07:38:00.389Z,20.60
2022-08-22T07:40:37.365Z,20.60
2022-08-22T07:43:16.547Z,20.70
2022-08-22T07:45:49.747Z,20.70
2022-08-22T07:48:31.123Z,20.70
2022-08-22T07:51:07.047Z,20.70
2022-08-22T07:53:42.607Z,20.70
2022-08-22T07:56:17.731Z,20.70
2022-08-22T07:58:49.175Z,20.70
2022-08-22T08:01:20.194Z,20.70
2022-08-22T08:03:53.589Z,20.70
2022-08-22T08:06:24.299Z,20.70
2022-08-22T08:08:54.301Z,20.80
2022-08-22T08:11:28.038Z,20.80
2022-08-22T08:14:00.286Z,20.90
2022-08-22T08:16:41.010Z,21.00
2022-08-22T08:19:10.470Z,21.00
2022-08-22T08:21:42.512Z,21.00
2022-08-22T08:24:16.258Z,21.00
2022-08-22T08:27:06.418Z,21.00
2022-08-22T08:29:36.542Z,21.00
2022-08-22T08:32:07.686Z,20.90
2022-08-22T08:34:38.550Z,20.90
2022-08-22T08:37:13.386Z,20.90
2022-08-22T08:39:49.864Z,20.90
2022-08-22T08:42:57.991Z,20.90
2022-08-22T08:45:42.389Z,20.90
2022-08-22T08:48:34.860Z,20.90
2022-08-22T08:51:20.641Z,20.90
2022-08-22T08:54:12.277Z,20.80
2022-08-22T08:56:50.173Z,20.80
2022-08-22T08:59:33.473Z,20.80
2022-08-22T09:02:20.553Z,20.80
2022-08-22T09:05:24.598Z,20.80
2022-08-22T09:08:07.672Z,20.80
2022-08-22T09:11:09.568Z,20.90
2022-08-22T09:13:53.165Z,20.90
2022-08-22T09:16:45.039Z,20.90
2022-08-22T09:20:03.164Z,21.00
2022-08-22T09:23:28.369Z,21.00
2022-08-22T09:26:01.216Z,21.10
2022-08-22T09:28:38.658Z,21.10
2022-08-22T09:31:32.706Z,21.10
2022-08-22T09:34:09.761Z,21.10
2022-08-22T09:36:49.146Z,21.10
2022-08-22T09:39:24.364Z,21.10
2022-08-22T09:42:02.696Z,21.10
2022-08-22T09:44:39.989Z,21.10
2022-08-22T09:47:17.152Z,21.20
2022-08-22T09:50:05.048Z,21.20
2022-08-22T09:52:58.024Z,21.30
2022-08-22T09:55:41.549Z,21.40
2022-08-22T09:58:19.293Z,21.40
2022-08-22T10:00:56.967Z,21.40
2022-08-22T10:03:53.626Z,21.40
2022-08-22T10:06:28.736Z,21.40
2022-08-22T10:09:04.234Z,21.50
2022-08-22T10:11:38.866Z,21.50
2022-08-22T10:14:16.118Z,21.50
2022-08-22T10:17:01.270Z,21.50
2022-08-22T10:19:33.862Z,21.50
2022-08-22T10:22:30.930Z,21.40
2022-08-22T10:25:27.928Z,21.50
2022-08-22T10:28:16.067Z,21.60
2022-08-22T10:31:02.068Z,21.60
2022-08-22T10:33:35.900Z,21.70
2022-08-22T10:36:11.971Z,21.70
2022-08-22T10:38:47.116Z,21.80
2022-08-22T10:41:28.066Z,21.70
2022-08-22T10:44:04.104Z,21.80
2022-08-22T10:46:37.833Z,21.70
2022-08-22T10:49:15.433Z,21.70
2022-08-22T10:51:53.214Z,21.70
2022-08-22T10:54:44.300Z,21.60
2022-08-22T10:57:52.801Z,21.60
2022-08-22T11:00:37.135Z,21.60
2022-08-22T11:03:21.851Z,21.50
2022-08-22T11:05:54.220Z,21.50
2022-08-22T11:08:50.366Z,21.60
2022-08-22T11:11:32.877Z,21.60
2022-08-22T11:14:27.311Z,21.70
2022-08-22T11:17:23.605Z,21.70
2022-08-22T11:20:08.955Z,21.90
2022-08-22T11:22:48.587Z,22.00
2022-08-22T11:25:38.388Z,22.10
2022-08-22T11:28:38.592Z,22.10
2022-08-22T11:31:16.259Z,22.10
2022-08-22T11:33:53.059Z,22.20
2022-08-22T11:36:31.449Z,22.30
2022-08-22T11:39:18.982Z,22.50
2022-08-22T11:41:55.559Z,22.60
2022-08-22T11:44:32.106Z,22.70
2022-08-22T11:47:08.525Z,23.00
2022-08-22T11:49:51.186Z,23.20
2022-08-22T11:52:34.457Z,23.30
2022-08-22T11:55:24.394Z,23.40
2022-08-22T11:57:56.078Z,23.50
2022-08-22T12:00:34.317Z,23.50
2022-08-22T12:03:23.769Z,23.50
2022-08-22T12:05:57.982Z,23.50
2022-08-22T12:09:10.565Z,23.50
2022-08-22T12:11:46.620Z,23.60
2022-08-22T12:14:26.883Z,23.60
2022-08-22T12:17:18.939Z,23.70
2022-08-22T12:20:16.546Z,23.60
2022-08-22T12:23:12.792Z,23.60
2022-08-22T12:26:04.940Z,23.70
2022-08-22T12:28:46.715Z,23.70
2022-08-22T12:31:26.815Z,23.60
2022-08-22T12:34:14.018Z,23.60
2022-08-22T12:36:54.820Z,23.60
2022-08-22T12:39:40.321Z,23.60
2022-08-22T12:42:28.739Z,23.60
2022-08-22T12:45:14.086Z,23.60
2022-08-22T12:47:55.350Z,23.60
2022-08-22T12:50:36.508Z,23.70
2022-08-22T12:53:34.203Z,23.70
2022-08-22T12:56:14.337Z,23.70
2022-08-22T12:59:05.770Z,23.70
2022-08-22T13:01:40.154Z,23.70
2022-08-22T13:04:19.162Z,23.80
2022-08-22T13:07:17.675Z,23.80
2022-08-22T13:09:52.344Z,23.70
2022-08-22T13:12:26.750Z,23.70
2022-08-22T13:14:59.778Z,23.70
2022-08-22T13:17:28.523Z,23.70
2022-08-22T13:20:11.532Z,23.70
2022-08-22T13:22:45.418Z,23.70
2022-08-22T13:25:25.792Z,23.70
2022-08-22T13:27:56.071Z,23.80
2022-08-22T13:30:31.706Z,23.90
2022-08-22T13:33:09.491Z,24.20
2022-08-22T13:35:45.356Z,24.50
2022-08-22T13:38:26.604Z,24.90
2022-08-22T13:40:57.339Z,25.20
2022-08-22T13:43:29.759Z,25.50
2022-08-22T13:46:01.920Z,25.80
2022-08-22T13:48:46.791Z,26.00
2022-08-22T13:51:22.551Z,26.20
2022-08-22T13:54:02.104Z,26.50
2022-08-22T13:56:36.515Z,26.60
2022-08-22T13:59:08.142Z,26.50
2022-08-22T14:01:49.671Z,26.30
2022-08-22T14:04:33.303Z,26.10
2022-08-22T14:07:24.218Z,26.00
2022-08-22T14:09:59.151Z,26.00
2022-08-22T14:12:50.181Z,26.10
2022-08-22T14:15:23.178Z,26.10
2022-08-22T14:17:56.649Z,26.10
2022-08-22T14:20:32.265Z,26.00
2022-08-22T14:23:08.083Z,26.00
2022-08-22T14:25:40.368Z,26.00
2022-08-22T14:28:12.080Z,25.90
2022-08-22T14:30:59.443Z,25.80
2022-08-22T14:33:35.707Z,25.90
2022-08-22T14:36:14.016Z,25.90
2022-08-22T14:38:47.056Z,26.00
2022-08-22T14:41:52.294Z,26.20
2022-08-22T14:44:23.390Z,26.50
2022-08-22T14:46:54.660Z,26.90
2022-08-22T14:49:36.015Z,27.30
2022-08-22T14:52:08.934Z,27.50
2022-08-22T14:54:38.811Z,27.40
2022-08-22T14:57:20.427Z,27.30
2022-08-22T14:59:53.196Z,27.10
2022-08-22T15:02:28.714Z,26.90
2022-08-22T15:05:01.447Z,26.60
2022-08-22T15:07:34.415Z,26.40
2022-08-22T15:10:07.106Z,26.20
2022-08-22T15:12:48.310Z,26.10
2022-08-22T15:15:30.391Z,25.90
2022-08-22T15:17:58.430Z,25.70
2022-08-22T15:20:34.161Z,25.70
2022-08-22T15:23:09.747Z,25.50
2022-08-22T15:25:42.181Z,25.50
2022-08-22T15:28:20.866Z,25.40
2022-08-22T15:30:59.975Z,25.30
2022-08-22T15:33:35.071Z,25.10
2022-08-22T15:36:15.870Z,25.00
2022-08-22T15:38:48.214Z,24.90
2022-08-22T15:41:47.912Z,24.80
2022-08-22T15:44:32.921Z,24.60
2022-08-22T15:47:12.082Z,24.60
2022-08-22T15:49:58.211Z,24.50
2022-08-22T15:52:29.961Z,24.50
2022-08-22T15:55:24.262Z,24.40
2022-08-22T15:58:02.803Z,24.50
2022-08-22T16:00:43.811Z,24.50
2022-08-22T16:03:24.470Z,24.40
2022-08-22T16:05:56.099Z,24.40
2022-08-22T16:08:29.653Z,24.40
2022-08-22T16:11:32.999Z,24.40
2022-08-22T16:14:21.369Z,24.40
2022-08-22T16:16:59.760Z,24.40
2022-08-22T16:19:30.051Z,24.40
2022-08-22T16:22:17.107Z,24.30
2022-08-22T16:25:10.175Z,24.40
2022-08-22T16:27:53.035Z,24.30
2022-08-22T16:30:34.641Z,24.20
2022-08-22T16:33:05.422Z,24.20
2022-08-22T16:36:22.368Z,24.10
2022-08-22T16:38:53.159Z,24.10
2022-08-22T16:41:34.451Z,24.00
2022-08-22T16:44:36.511Z,23.90
2022-08-22T16:47:15.011Z,23.60
2022-08-22T16:50:02.047Z,23.60
2022-08-22T16:52:55.501Z,23.50
2022-08-22T16:56:11.516Z,23.50
2022-08-22T16:59:22.523Z,23.40
2022-08-22T17:02:17.024Z,23.30
2022-08-22T17:04:53.962Z,23.20
2022-08-22T17:07:35.012Z,23.10
2022-08-22T17:10:33.241Z,23.00
2022-08-22T17:13:18.017Z,22.90
2022-08-22T17:16:01.681Z,22.80
2022-08-22T17:18:52.406Z,22.70
2022-08-22T17:21:25.989Z,22.70
2022-08-22T17:24:05.001Z,22.60
2022-08-22T17:26:46.867Z,22.60
2022-08-22T17:29:24.200Z,22.50
2022-08-22T17:31:56.769Z,22.40
2022-08-22T17:34:38.935Z,22.30
2022-08-22T17:37:18.124Z,22.30
2022-08-22T17:40:19.044Z,22.30
2022-08-22T17:43:05.775Z,22.20
2022-08-22T17:45:55.342Z,22.20
2022-08-22T17:48:28.283Z,22.10
2022-08-22T17:51:00.219Z,22.00
2022-08-22T17:53:34.008Z,21.90
2022-08-22T17:56:13.366Z,21.80
2022-08-22T17:58:46.606Z,21.80
2022-08-22T18:01:21.269Z,21.70
2022-08-22T18:04:00.139Z,21.60
2022-08-22T18:06:31.122Z,21.60
2022-08-22T18:09:16.612Z,21.50
2022-08-22T18:11:49.480Z,21.40
2022-08-22T18:14:30.655Z,21.40
2022-08-22T18:17:00.913Z,21.20
2022-08-22T18:19:43.145Z,21.20
2022-08-22T18:22:14.286Z,21.20
2022-08-22T18:24:49.541Z,21.10
2022-08-22T18:27:34.442Z,21.10
2022-08-22T18:30:15.493Z,21.10
2022-08-22T18:32:52.362Z,21.00
2022-08-22T18:35:26.058Z,21.00
2022-08-22T18:38:03.247Z,20.90
2022-08-22T18:40:51.423Z,20.90
2022-08-22T18:43:24.083Z,20.80
2022-08-22T18:46:03.922Z,20.80
2022-08-22T18:48:54.250Z,20.80
2022-08-22T18:51:30.621Z,20.70
2022-08-22T18:54:20.513Z,20.70
2022-08-22T18:56:54.147Z,20.60
2022-08-22T18:59:47.814Z,20.60
2022-08-22T19:02:50.999Z,20.60
2022-08-22T19:06:14.463Z,20.50
2022-08-22T19:09:04.471Z,20.50
2022-08-22T19:11:47.404Z,20.40
2022-08-22T19:14:30.439Z,20.40
2022-08-22T19:17:27.730Z,20.30
2022-08-22T19:20:20.943Z,20.30
2022-08-22T19:22:51.130Z,20.20
2022-08-22T19:25:25.987Z,20.20
2022-08-22T19:28:23.591Z,20.20
2022-08-22T19:30:53.127Z,20.20
2022-08-22T19:33:34.816Z,20.20
2022-08-22T19:36:11.899Z,20.30
2022-08-22T19:39:00.211Z,20.30
2022-08-22T19:41:53.492Z,20.30
2022-08-22T19:44:39.847Z,20.20
2022-08-22T19:47:26.847Z,20.30
2022-08-22T19:50:05.694Z,20.20
2022-08-22T19:53:00.235Z,20.20
2022-08-22T19:55:42.825Z,20.20
2022-08-22T19:58:31.729Z,20.10
2022-08-22T20:01:10.072Z,20.10
2022-08-22T20:03:49.653Z,20.10
2022-08-22T20:06:45.482Z,20.10
2022-08-22T20:09:27.522Z,20.10
2022-08-22T20:12:12.021Z,20.00
2022-08-22T20:14:44.898Z,20.00
2022-08-22T20:17:15.449Z,20.00
2022-08-22T20:22:43.342Z,20.10
2022-08-22T20:25:41.455Z,20.10
2022-08-22T20:28:09.230Z,20.10
2022-08-22T20:30:42.047Z,20.10
2022-08-22T20:33:14.648Z,20.10
2022-08-22T20:35:45.318Z,20.10
2022-08-22T20:38:17.611Z,20.10
2022-08-22T20:40:58.689Z,20.10
2022-08-22T20:43:34.396Z,20.10
2022-08-22T20:46:13.434Z,20.10
2022-08-22T20:48:44.874Z,20.10
2022-08-22T20:51:23.881Z,20.00
2022-08-22T20:53:53.467Z,20.10
2022-08-22T20:56:35.223Z,20.00
2022-08-22T20:59:18.718Z,20.00
2022-08-22T21:01:48.133Z,20.00
2022-08-22T21:04:20.813Z,19.90
2022-08-22T21:06:49.559Z,19.90
2022-08-22T21:09:35.841Z,19.90
2022-08-22T21:12:09.282Z,19.80
2022-08-22T21:14:44.458Z,19.80
2022-08-22T21:17:20.732Z,19.70
2022-08-22T21:19:49.097Z,19.70
2022-08-22T21:22:19.401Z,19.60
2022-08-22T21:24:47.532Z,19.60
2022-08-22T21:27:24.492Z,19.60
2022-08-22T21:29:52.704Z,19.60
2022-08-22T21:32:29.393Z,19.60
2022-08-22T21:34:57.867Z,19.50
2022-08-22T21:37:34.712Z,19.50
2022-08-22T21:40:08.586Z,19.50
2022-08-22T21:42:45.988Z,19.40
2022-08-22T21:45:28.521Z,19.40
2022-08-22T21:47:57.205Z,19.40
2022-08-22T21:50:37.886Z,19.40
2022-08-22T21:53:10.379Z,19.30
2022-08-22T21:55:44.296Z,19.30
2022-08-22T21:58:36.341Z,19.30
2022-08-22T22:01:30.570Z,19.30
2022-08-22T22:04:00.287Z,19.30
2022-08-22T22:06:28.531Z,19.20
2022-08-22T22:08:56.579Z,19.30
2022-08-22T22:11:24.585Z,19.20
2022-08-22T22:13:52.671Z,19.20
2022-08-22T22:16:26.497Z,19.20
2022-08-22T22:18:57.153Z,19.20
2022-08-22T22:21:25.307Z,19.20
2022-08-22T22:23:53.683Z,19.20
2022-08-22T22:26:26.972Z,19.10
2022-08-22T22:28:55.038Z,19.10
2022-08-22T22:31:23.113Z,19.10
2022-08-22T22:33:51.299Z,19.10
2022-08-22T22:36:24.654Z,19.10
2022-08-22T22:38:53.438Z,19.10
2022-08-22T22:41:25.281Z,19.10
2022-08-22T22:43:53.772Z,19.10
2022-08-22T22:46:22.162Z,19.20
2022-08-22T22:48:50.122Z,19.20
2022-08-22T22:51:18.186Z,19.20
2022-08-22T22:53:47.973Z,19.20
2022-08-22T22:56:18.145Z,19.20
2022-08-22T22:58:50.164Z,19.10
2022-08-22T23:01:27.951Z,19.10
2022-08-22T23:03:57.359Z,19.10
2022-08-22T23:06:27.207Z,19.00
2022-08-22T23:08:57.516Z,19.00
2022-08-22T23:11:27.666Z,19.00
2022-08-22T23:13:56.191Z,19.00
2022-08-22T23:16:27.263Z,19.00
2022-08-22T23:18:55.787Z,18.90
2022-08-22T23:21:26.388Z,18.90
2022-08-22T23:23:58.272Z,18.90
2022-08-22T23:26:26.741Z,18.90
2022-08-22T23:28:55.088Z,18.90
2022-08-22T23:31:30.003Z,18.90
2022-08-22T23:34:02.583Z,18.90
2022-08-22T23:36:30.607Z,18.90
2022-08-22T23:39:00.243Z,18.90
2022-08-22T23:41:29.003Z,18.90
2022-08-22T23:43:57.130Z,18.90
2022-08-22T23:46:26.991Z,18.80
2022-08-22T23:48:55.694Z,18.80
2022-08-22T23:51:25.623Z,18.80
2022-08-22T23:53:54.938Z,18.90
2022-08-22T23:56:30.614Z,19.00
2022-08-22T23:58:59.639Z,19.00
